createdAt,value
2022-10-27T00:01:23.444Z,12.32
2022-10-27T00:03:29.955Z,12.26
2022-10-27T00:05:36.380Z,12.23
2022-10-27T00:07:42.931Z,12.21
2022-10-27T00:09:49.062Z,12.17
2022-10-27T00:11:57.497Z,12.14
2022-10-27T00:14:03.850Z,12.11
2022-10-27T00:16:16.565Z,12.09
2022-10-27T00:18:23.606Z,12.07
2022-10-27T00:20:30.551Z,12.05
2022-10-27T00:22:36.521Z,12.02
2022-10-27T00:24:43.824Z,11.97
2022-10-27T00:26:50.290Z,11.92
2022-10-27T00:28:56.894Z,11.90
2022-10-27T00:31:12.481Z,11.90
2022-10-27T00:33:19.271Z,11.89
2022-10-27T00:35:25.473Z,11.88
2022-10-27T00:37:31.518Z,11.85
2022-10-27T00:39:37.863Z,11.83
2022-10-27T00:41:44.518Z,11.80
2022-10-27T00:43:51.189Z,11.78
2022-10-27T00:46:02.806Z,11.76
2022-10-27T00:48:09.132Z,11.75
2022-10-27T00:50:21.382Z,11.73
2022-10-27T00:52:59.684Z,11.70
2022-10-27T00:55:21.027Z,11.69
2022-10-27T00:57:28.653Z,11.67
2022-10-27T00:59:35.703Z,11.66
2022-10-27T01:01:43.158Z,11.63
2022-10-27T01:03:49.649Z,11.64
2022-10-27T01:05:58.432Z,11.64
2022-10-27T01:08:06.834Z,11.61
2022-10-27T01:10:15.987Z,11.59
2022-10-27T01:14:33.494Z,11.52
2022-10-27T01:17:11.083Z,11.50
2022-10-27T01:19:52.539Z,11.48
2022-10-27T01:22:30.438Z,11.44
2022-10-27T01:24:46.343Z,11.42
2022-10-27T01:27:07.024Z,11.41
2022-10-27T01:29:39.610Z,11.36
2022-10-27T01:32:12.533Z,11.32
2022-10-27T01:34:54.934Z,11.30
2022-10-27T01:37:27.247Z,11.27
2022-10-27T01:39:38.051Z,11.24
2022-10-27T01:41:59.902Z,11.20
2022-10-27T01:44:12.807Z,11.16
2022-10-27T01:46:20.541Z,11.14
2022-10-27T01:48:26.973Z,11.10
2022-10-27T01:50:45.203Z,11.07
2022-10-27T01:53:03.835Z,11.05
2022-10-27T01:55:28.042Z,11.03
2022-10-27T01:58:18.800Z,11.02
2022-10-27T02:00:25.053Z,10.99
2022-10-27T02:02:49.859Z,10.98
2022-10-27T02:04:59.580Z,10.98
2022-10-27T02:07:15.383Z,10.95
2022-10-27T02:09:48.237Z,10.92
2022-10-27T02:11:57.510Z,10.90
2022-10-27T02:14:03.560Z,10.87
2022-10-27T02:16:32.490Z,10.84
2022-10-27T02:18:47.576Z,10.84
2022-10-27T02:20:59.045Z,10.82
2022-10-27T02:23:10.609Z,10.79
2022-10-27T02:25:17.931Z,10.77
2022-10-27T02:27:37.157Z,10.76
2022-10-27T02:29:49.617Z,10.75
2022-10-27T02:32:00.579Z,10.73
2022-10-27T02:34:07.973Z,10.72
2022-10-27T02:36:14.365Z,10.72
2022-10-27T02:38:20.862Z,10.70
2022-10-27T02:40:27.726Z,10.71
2022-10-27T02:42:33.968Z,10.70
2022-10-27T02:44:40.314Z,10.68
2022-10-27T02:46:48.493Z,10.65
2022-10-27T02:48:56.999Z,10.62
2022-10-27T02:51:03.705Z,10.59
2022-10-27T02:53:11.134Z,10.58
2022-10-27T02:55:17.588Z,10.55
2022-10-27T02:57:24.581Z,10.52
2022-10-27T02:59:30.905Z,10.50
2022-10-27T03:01:37.438Z,10.50
2022-10-27T03:03:44.074Z,10.48
2022-10-27T03:05:50.766Z,10.46
2022-10-27T03:07:57.408Z,10.44
2022-10-27T03:10:04.324Z,10.44
2022-10-27T03:12:10.847Z,10.44
2022-10-27T03:14:16.965Z,10.42
2022-10-27T03:16:23.572Z,10.42
2022-10-27T03:18:29.695Z,10.42
2022-10-27T03:20:36.045Z,10.40
2022-10-27T03:22:42.880Z,10.38
2022-10-27T03:24:48.925Z,10.36
2022-10-27T03:26:55.606Z,10.33
2022-10-27T03:29:02.595Z,10.31
2022-10-27T03:31:08.999Z,10.31
2022-10-27T03:33:15.309Z,10.30
2022-10-27T03:35:22.101Z,10.29
2022-10-27T03:37:28.567Z,10.28
2022-10-27T03:39:35.119Z,10.26
2022-10-27T03:41:41.825Z,10.26
2022-10-27T03:43:48.569Z,10.24
2022-10-27T03:45:57.281Z,10.26
2022-10-27T03:48:13.792Z,10.26
2022-10-27T03:50:20.241Z,10.27
2022-10-27T03:52:28.525Z,10.27
2022-10-27T03:54:37.741Z,10.29
2022-10-27T03:56:44.272Z,10.30
2022-10-27T03:58:50.896Z,10.31
2022-10-27T04:01:03.498Z,10.31
2022-10-27T04:03:09.313Z,10.32
2022-10-27T04:05:16.436Z,10.31
2022-10-27T04:07:22.731Z,10.30
2022-10-27T04:09:29.393Z,10.32
2022-10-27T04:11:35.801Z,10.32
2022-10-27T04:13:42.517Z,10.32
2022-10-27T04:15:48.982Z,10.29
2022-10-27T04:17:57.793Z,10.28
2022-10-27T04:20:04.348Z,10.26
2022-10-27T04:22:10.886Z,10.25
2022-10-27T04:24:17.381Z,10.23
2022-10-27T04:26:23.643Z,10.22
2022-10-27T04:28:29.899Z,10.21
2022-10-27T04:30:36.537Z,10.21
2022-10-27T04:32:43.424Z,10.20
2022-10-27T04:34:50.062Z,10.20
2022-10-27T04:36:57.688Z,10.21
2022-10-27T04:39:04.187Z,10.20
2022-10-27T04:41:10.547Z,10.18
2022-10-27T04:43:16.848Z,10.17
2022-10-27T04:45:23.268Z,10.16
2022-10-27T04:47:29.832Z,10.15
2022-10-27T04:49:36.661Z,10.16
2022-10-27T04:51:43.257Z,10.16
2022-10-27T04:53:49.666Z,10.16
2022-10-27T04:55:56.348Z,10.16
2022-10-27T04:58:05.532Z,10.14
2022-10-27T05:00:13.998Z,10.14
2022-10-27T05:02:21.137Z,10.13
2022-10-27T05:04:28.095Z,10.12
2022-10-27T05:06:34.791Z,10.11
2022-10-27T05:08:41.521Z,10.10
2022-10-27T05:10:48.269Z,10.08
2022-10-27T05:12:54.913Z,10.07
2022-10-27T05:15:01.694Z,10.06
2022-10-27T05:17:08.329Z,10.04
2022-10-27T05:19:14.712Z,10.03
2022-10-27T05:21:21.170Z,10.04
2022-10-27T05:23:27.815Z,10.03
2022-10-27T05:25:34.441Z,10.02
2022-10-27T05:27:40.946Z,10.02
2022-10-27T05:29:47.617Z,10.01
2022-10-27T05:31:54.428Z,10.02
2022-10-27T05:36:13.243Z,10.02
2022-10-27T05:38:20.058Z,10.02
2022-10-27T05:40:26.727Z,10.02
2022-10-27T05:42:33.425Z,10.01
2022-10-27T05:44:39.958Z,10.01
2022-10-27T05:46:46.311Z,10.00
2022-10-27T05:48:52.455Z,10.00
2022-10-27T05:50:59.072Z,9.99
2022-10-27T05:53:05.614Z,10.00
2022-10-27T05:55:11.993Z,10.01
2022-10-27T05:57:19.491Z,10.01
2022-10-27T05:59:25.634Z,10.02
2022-10-27T06:01:31.783Z,10.04
2022-10-27T06:03:38.116Z,10.07
2022-10-27T06:05:44.764Z,10.07
2022-10-27T06:07:51.831Z,10.08
2022-10-27T06:09:57.957Z,10.07
2022-10-27T06:12:04.885Z,10.07
2022-10-27T06:14:11.160Z,10.07
2022-10-27T06:16:17.742Z,10.07
2022-10-27T06:18:23.981Z,10.07
2022-10-27T06:20:30.505Z,10.07
2022-10-27T06:22:36.913Z,10.07
2022-10-27T06:24:42.859Z,10.07
2022-10-27T06:26:51.947Z,10.07
2022-10-27T06:29:00.601Z,10.07
2022-10-27T06:31:06.799Z,10.07
2022-10-27T06:33:12.792Z,10.07
2022-10-27T06:35:19.749Z,10.08
2022-10-27T06:37:25.685Z,10.09
2022-10-27T06:39:32.564Z,10.10
2022-10-27T06:41:38.749Z,10.11
2022-10-27T06:43:44.981Z,10.12
2022-10-27T06:45:51.463Z,10.15
2022-10-27T06:48:03.090Z,10.15
2022-10-27T06:50:09.608Z,10.17
2022-10-27T06:52:19.292Z,10.17
2022-10-27T06:54:25.366Z,10.16
2022-10-27T06:56:31.631Z,10.14
2022-10-27T06:58:41.258Z,10.14
2022-10-27T07:00:48.336Z,10.14
2022-10-27T07:02:55.139Z,10.13
2022-10-27T07:05:02.489Z,10.13
2022-10-27T07:07:09.785Z,10.13
2022-10-27T07:09:16.240Z,10.12
2022-10-27T07:11:23.338Z,10.13
2022-10-27T07:13:29.980Z,10.12
2022-10-27T07:15:39.260Z,10.12
2022-10-27T07:17:46.133Z,10.11
2022-10-27T07:19:52.538Z,10.08
2022-10-27T07:21:58.897Z,10.07
2022-10-27T07:24:05.087Z,10.08
2022-10-27T07:26:11.237Z,10.07
2022-10-27T07:28:19.299Z,10.06
2022-10-27T07:30:30.058Z,10.07
2022-10-27T07:32:36.481Z,10.07
2022-10-27T07:34:42.822Z,10.07
2022-10-27T07:36:49.238Z,10.07
2022-10-27T07:38:55.701Z,10.06
2022-10-27T07:41:02.218Z,10.06
2022-10-27T07:43:09.234Z,10.03
2022-10-27T07:45:17.107Z,10.01
2022-10-27T07:47:23.312Z,9.98
2022-10-27T07:49:29.777Z,9.96
2022-10-27T07:51:36.147Z,9.95
2022-10-27T07:53:42.079Z,9.93
2022-10-27T07:55:48.767Z,9.93
2022-10-27T07:58:08.942Z,9.92
2022-10-27T08:00:18.576Z,9.91
2022-10-27T08:02:24.637Z,9.90
2022-10-27T08:04:30.812Z,9.90
2022-10-27T08:06:36.699Z,9.91
2022-10-27T08:08:43.085Z,9.91
2022-10-27T08:10:51.537Z,9.92
2022-10-27T08:12:58.112Z,9.93
2022-10-27T08:15:04.690Z,9.92
2022-10-27T08:17:10.912Z,9.91
2022-10-27T08:19:18.019Z,9.90
2022-10-27T08:21:24.431Z,9.91
2022-10-27T08:23:31.096Z,9.90
2022-10-27T08:25:37.824Z,9.89
2022-10-27T08:27:43.986Z,9.86
2022-10-27T08:29:50.536Z,9.84
2022-10-27T08:31:56.515Z,9.83
2022-10-27T08:34:02.931Z,9.83
2022-10-27T08:36:09.075Z,9.83
2022-10-27T08:38:17.629Z,9.84
2022-10-27T08:40:23.989Z,9.84
2022-10-27T08:42:36.317Z,9.85
2022-10-27T08:44:51.317Z,9.85
2022-10-27T08:47:12.310Z,9.84
2022-10-27T08:49:31.266Z,9.85
2022-10-27T08:51:38.155Z,9.86
2022-10-27T08:53:47.798Z,9.85
2022-10-27T08:55:57.277Z,9.85
2022-10-27T08:58:25.428Z,9.85
2022-10-27T09:00:40.986Z,9.86
2022-10-27T09:03:08.066Z,9.86
2022-10-27T09:05:38.581Z,9.87
2022-10-27T09:08:18.447Z,9.86
2022-10-27T09:10:53.289Z,9.86
2022-10-27T09:13:26.911Z,9.85
2022-10-27T09:15:42.363Z,9.84
2022-10-27T09:18:08.284Z,9.82
2022-10-27T09:20:52.687Z,9.82
2022-10-27T09:23:08.166Z,9.81
2022-10-27T09:25:22.505Z,9.80
2022-10-27T09:27:29.127Z,9.79
2022-10-27T09:29:38.452Z,9.78
2022-10-27T09:32:08.399Z,9.79
2022-10-27T09:34:39.521Z,9.78
2022-10-27T09:36:46.169Z,9.76
2022-10-27T09:38:52.508Z,9.75
2022-10-27T09:40:59.495Z,9.75
2022-10-27T09:43:06.043Z,9.76
2022-10-27T09:45:24.246Z,9.76
2022-10-27T09:47:36.836Z,9.76
2022-10-27T09:49:49.421Z,9.74
2022-10-27T09:52:21.729Z,9.74
2022-10-27T09:54:37.818Z,9.72
2022-10-27T09:56:44.380Z,9.70
2022-10-27T09:59:03.626Z,9.70
2022-10-27T10:01:12.398Z,9.68
2022-10-27T10:03:23.430Z,9.68
2022-10-27T10:05:35.648Z,9.68
2022-10-27T10:07:44.591Z,9.67
2022-10-27T10:10:03.762Z,9.66
2022-10-27T10:12:24.586Z,9.66
2022-10-27T10:14:31.468Z,9.65
2022-10-27T10:16:37.748Z,9.66
2022-10-27T10:19:07.132Z,9.66
2022-10-27T10:21:16.195Z,9.67
2022-10-27T10:23:25.500Z,9.66
2022-10-27T10:25:48.318Z,9.68
2022-10-27T10:28:08.598Z,9.70
2022-10-27T10:30:21.363Z,9.70
2022-10-27T10:32:37.056Z,9.71
2022-10-27T10:34:46.862Z,9.69
2022-10-27T10:36:53.580Z,9.71
2022-10-27T10:39:01.313Z,9.72
2022-10-27T10:41:18.729Z,9.73
2022-10-27T10:43:25.546Z,9.73
2022-10-27T10:45:36.577Z,9.75
2022-10-27T10:47:49.951Z,9.75
2022-10-27T10:50:00.916Z,9.75
2022-10-27T10:52:17.695Z,9.75
2022-10-27T10:54:47.282Z,9.77
2022-10-27T10:56:55.304Z,9.78
2022-10-27T10:59:22.193Z,9.78
2022-10-27T11:01:42.930Z,9.79
2022-10-27T11:03:55.088Z,9.80
2022-10-27T11:06:02.129Z,9.81
2022-10-27T11:08:22.699Z,9.81
2022-10-27T11:10:39.181Z,9.80
2022-10-27T11:12:50.654Z,9.80
2022-10-27T11:15:00.017Z,9.80
2022-10-27T11:17:06.629Z,9.81
2022-10-27T11:19:18.411Z,9.81
2022-10-27T11:21:57.462Z,9.81
2022-10-27T11:24:12.666Z,9.81
2022-10-27T11:26:24.282Z,9.81
2022-10-27T11:29:00.637Z,9.80
2022-10-27T11:31:13.654Z,9.80
2022-10-27T11:33:34.117Z,9.80
2022-10-27T11:36:14.907Z,9.79
2022-10-27T11:38:53.857Z,9.77
2022-10-27T11:41:16.649Z,9.76
2022-10-27T11:44:00.116Z,9.75
2022-10-27T11:46:16.141Z,9.73
2022-10-27T11:48:36.531Z,9.72
2022-10-27T11:50:56.314Z,9.67
2022-10-27T11:53:04.361Z,9.65
2022-10-27T11:55:14.141Z,9.65
2022-10-27T11:57:42.265Z,9.65
2022-10-27T12:00:04.665Z,9.64
2022-10-27T12:02:28.182Z,9.64
2022-10-27T12:04:49.459Z,9.63
2022-10-27T12:07:04.035Z,9.61
2022-10-27T12:09:16.352Z,9.60
2022-10-27T12:11:40.511Z,9.59
2022-10-27T12:14:09.852Z,9.57
2022-10-27T12:16:42.072Z,9.58
2022-10-27T12:19:04.862Z,9.57
2022-10-27T12:21:27.121Z,9.56
2022-10-27T12:23:42.470Z,9.55
2022-10-27T12:26:08.990Z,9.52
2022-10-27T12:28:16.873Z,9.50
2022-10-27T12:30:27.023Z,9.48
2022-10-27T12:32:41.430Z,9.44
2022-10-27T12:35:04.026Z,9.44
2022-10-27T12:37:26.707Z,9.44
2022-10-27T12:39:44.877Z,9.44
2022-10-27T12:41:56.219Z,9.45
2022-10-27T12:44:38.072Z,9.47
2022-10-27T12:46:47.108Z,9.47
2022-10-27T12:49:06.276Z,9.47
2022-10-27T12:51:30.678Z,9.49
2022-10-27T12:54:03.456Z,9.48
2022-10-27T12:56:29.010Z,9.47
2022-10-27T12:58:48.551Z,9.46
2022-10-27T13:01:02.383Z,9.45
2022-10-27T13:03:41.100Z,9.43
2022-10-27T13:06:12.248Z,9.43
2022-10-27T13:08:18.132Z,9.41
2022-10-27T13:10:31.157Z,9.39
2022-10-27T13:13:03.391Z,9.37
2022-10-27T13:15:36.329Z,9.36
2022-10-27T13:18:01.017Z,9.34
2022-10-27T13:20:19.445Z,9.31
2022-10-27T13:22:42.242Z,9.29
2022-10-27T13:25:20.474Z,9.26
2022-10-27T13:27:33.507Z,9.24
2022-10-27T13:30:00.075Z,9.21
2022-10-27T13:32:24.584Z,9.20
2022-10-27T13:34:31.216Z,9.19
2022-10-27T13:36:39.391Z,9.17
2022-10-27T13:38:46.011Z,9.14
2022-10-27T13:40:54.286Z,9.13
2022-10-27T13:43:25.931Z,9.12
2022-10-27T13:45:32.698Z,9.10
2022-10-27T13:47:38.859Z,9.09
2022-10-27T13:49:45.350Z,9.05
2022-10-27T13:52:17.159Z,9.01
2022-10-27T13:54:57.018Z,8.98
2022-10-27T13:57:25.844Z,8.95
2022-10-27T13:59:36.112Z,8.92
2022-10-27T14:01:52.013Z,8.90
2022-10-27T14:04:49.602Z,8.89
2022-10-27T14:09:25.881Z,8.84
2022-10-27T14:11:32.869Z,8.83
2022-10-27T14:13:49.948Z,8.81
2022-10-27T14:16:03.430Z,8.81
2022-10-27T14:18:39.267Z,8.79
2022-10-27T14:20:46.206Z,8.77
2022-10-27T14:22:56.886Z,8.76
2022-10-27T14:25:17.660Z,8.74
2022-10-27T14:27:25.435Z,8.70
2022-10-27T14:29:33.544Z,8.67
2022-10-27T14:31:42.701Z,8.66
2022-10-27T14:33:52.769Z,8.62
2022-10-27T14:36:18.382Z,8.61
2022-10-27T14:38:25.028Z,8.58
2022-10-27T14:40:40.820Z,8.56
2022-10-27T14:42:48.185Z,8.54
2022-10-27T14:45:05.388Z,8.54
2022-10-27T14:47:18.040Z,8.53
2022-10-27T14:49:34.901Z,8.52
2022-10-27T14:51:41.575Z,8.51
2022-10-27T14:53:53.775Z,8.50
2022-10-27T14:56:20.816Z,8.49
2022-10-27T14:58:27.414Z,8.49
2022-10-27T15:00:37.928Z,8.50
2022-10-27T15:02:45.172Z,8.49
2022-10-27T15:04:52.857Z,8.49
2022-10-27T15:07:03.926Z,8.50
2022-10-27T15:09:25.921Z,8.50
2022-10-27T15:11:32.575Z,8.48
2022-10-27T15:13:38.929Z,8.46
2022-10-27T15:15:47.787Z,8.46
2022-10-27T15:17:53.975Z,8.46
2022-10-27T15:20:02.946Z,8.46
2022-10-27T15:22:09.257Z,8.45
2022-10-27T15:24:20.500Z,8.44
2022-10-27T15:26:31.479Z,8.44
2022-10-27T15:28:40.133Z,8.47
2022-10-27T15:30:46.827Z,8.48
2022-10-27T15:32:54.011Z,8.52
2022-10-27T15:35:00.790Z,8.55
2022-10-27T15:37:28.580Z,8.66
2022-10-27T15:39:35.149Z,8.87
2022-10-27T15:41:52.767Z,9.06
2022-10-27T15:44:04.504Z,9.29
2022-10-27T15:46:31.528Z,9.51
2022-10-27T15:48:40.990Z,9.78
2022-10-27T15:51:06.242Z,10.08
2022-10-27T15:53:21.464Z,10.42
2022-10-27T15:55:29.035Z,10.76
2022-10-27T15:57:39.746Z,11.05
2022-10-27T16:00:14.973Z,11.29
2022-10-27T16:02:30.193Z,11.55
2022-10-27T16:04:46.086Z,11.84
2022-10-27T16:07:15.618Z,12.13
2022-10-27T16:09:46.467Z,12.29
2022-10-27T16:11:53.013Z,12.46
2022-10-27T16:14:02.549Z,12.52
2022-10-27T16:16:09.892Z,12.52
2022-10-27T16:18:20.266Z,12.46
2022-10-27T16:20:35.274Z,12.50
2022-10-27T16:22:41.323Z,12.69
2022-10-27T16:24:48.273Z,12.95
2022-10-27T16:26:56.685Z,13.18
2022-10-27T16:29:02.907Z,13.40
2022-10-27T16:31:15.304Z,13.63
2022-10-27T16:33:25.758Z,13.90
2022-10-27T16:35:33.184Z,14.17
2022-10-27T16:37:39.756Z,14.40
2022-10-27T16:39:46.275Z,14.51
2022-10-27T16:41:53.040Z,14.71
2022-10-27T16:43:59.553Z,14.87
2022-10-27T16:46:06.702Z,14.98
2022-10-27T16:48:14.724Z,15.08
2022-10-27T16:50:21.378Z,14.94
2022-10-27T16:52:28.003Z,14.70
2022-10-27T16:54:41.651Z,14.56
2022-10-27T16:56:48.517Z,14.36
2022-10-27T16:58:54.806Z,14.25
2022-10-27T17:01:08.567Z,14.39
2022-10-27T17:03:16.573Z,14.65
2022-10-27T17:05:23.301Z,14.84
2022-10-27T17:07:30.766Z,14.94
2022-10-27T17:09:37.470Z,15.07
2022-10-27T17:11:44.831Z,15.13
2022-10-27T17:13:51.073Z,15.15
2022-10-27T17:15:57.651Z,15.25
2022-10-27T17:18:03.831Z,15.25
2022-10-27T17:20:10.397Z,15.33
2022-10-27T17:22:16.747Z,15.42
2022-10-27T17:24:23.170Z,15.25
2022-10-27T17:26:29.264Z,15.03
2022-10-27T17:28:35.902Z,14.89
2022-10-27T17:30:41.888Z,14.79
2022-10-27T17:32:48.546Z,14.82
2022-10-27T17:34:54.972Z,14.95
2022-10-27T17:37:01.736Z,15.05
2022-10-27T17:39:09.030Z,15.17
2022-10-27T17:41:15.405Z,15.16
2022-10-27T17:43:22.481Z,15.15
2022-10-27T17:45:28.617Z,15.24
2022-10-27T17:47:35.524Z,15.24
2022-10-27T17:49:42.473Z,15.31
2022-10-27T17:51:48.849Z,15.52
2022-10-27T17:53:55.738Z,15.73
2022-10-27T17:56:04.740Z,15.99
2022-10-27T17:58:11.420Z,16.13
2022-10-27T18:00:18.240Z,16.27
2022-10-27T18:02:25.528Z,16.52
2022-10-27T18:04:32.040Z,16.79
2022-10-27T18:06:39.588Z,16.95
2022-10-27T18:08:46.438Z,17.08
2022-10-27T18:10:54.829Z,17.35
2022-10-27T18:13:00.941Z,17.54
2022-10-27T18:15:34.062Z,17.72
2022-10-27T18:17:34.731Z,17.86
2022-10-27T18:19:41.981Z,17.87
2022-10-27T18:21:49.482Z,17.84
2022-10-27T18:23:58.078Z,17.85
2022-10-27T18:26:06.438Z,17.84
2022-10-27T18:28:12.766Z,17.90
2022-10-27T18:30:20.174Z,17.97
2022-10-27T18:32:26.468Z,18.10
2022-10-27T18:34:32.723Z,18.13
2022-10-27T18:36:39.985Z,18.04
2022-10-27T18:38:46.784Z,17.97
2022-10-27T18:40:52.909Z,18.04
2022-10-27T18:43:01.244Z,18.07
2022-10-27T18:45:08.827Z,18.11
2022-10-27T18:47:15.689Z,18.16
2022-10-27T18:49:30.480Z,18.17
2022-10-27T18:51:48.348Z,18.16
2022-10-27T18:53:59.147Z,18.24
2022-10-27T18:56:08.390Z,18.32
2022-10-27T18:58:14.351Z,18.37
2022-10-27T19:00:20.856Z,18.42
2022-10-27T19:02:27.251Z,18.52
2022-10-27T19:04:33.837Z,18.57
2022-10-27T19:06:40.109Z,18.64
2022-10-27T19:08:46.393Z,18.72
2022-10-27T19:10:52.713Z,18.71
2022-10-27T19:12:58.766Z,18.71
2022-10-27T19:15:05.473Z,18.74
2022-10-27T19:17:11.529Z,18.81
2022-10-27T19:19:17.541Z,18.97
2022-10-27T19:21:23.653Z,19.16
2022-10-27T19:23:30.553Z,19.30
2022-10-27T19:25:36.404Z,19.37
2022-10-27T19:27:42.785Z,19.39
2022-10-27T19:29:48.862Z,19.30
2022-10-27T19:31:54.863Z,19.22
2022-10-27T19:34:01.422Z,19.29
2022-10-27T19:36:12.060Z,19.39
2022-10-27T19:38:19.114Z,19.38
2022-10-27T19:40:25.613Z,19.34
2022-10-27T19:42:32.009Z,19.41
2022-10-27T19:44:38.001Z,19.53
2022-10-27T19:46:44.531Z,19.56
2022-10-27T19:49:01.505Z,19.48
2022-10-27T19:51:19.825Z,19.53
2022-10-27T19:53:26.056Z,19.57
2022-10-27T19:55:33.935Z,19.68
2022-10-27T19:57:40.540Z,19.77
2022-10-27T19:59:46.905Z,19.77
2022-10-27T20:01:55.003Z,19.87
2022-10-27T20:04:03.273Z,19.96
2022-10-27T20:06:10.912Z,19.97
2022-10-27T20:08:17.690Z,20.02
2022-10-27T20:10:24.353Z,20.07
2022-10-27T20:12:31.449Z,20.14
2022-10-27T20:14:37.762Z,20.14
2022-10-27T20:16:45.909Z,20.16
2022-10-27T20:18:53.070Z,20.12
2022-10-27T20:20:59.470Z,19.95
2022-10-27T20:23:05.919Z,19.77
2022-10-27T20:25:12.513Z,19.68
2022-10-27T20:27:18.816Z,19.70
2022-10-27T20:29:27.204Z,19.74
2022-10-27T20:31:36.411Z,19.81
2022-10-27T20:33:42.840Z,19.81
2022-10-27T20:35:49.216Z,19.84
2022-10-27T20:37:55.598Z,19.82
2022-10-27T20:40:02.325Z,19.86
2022-10-27T20:42:08.695Z,19.85
2022-10-27T20:44:15.069Z,19.85
2022-10-27T20:46:21.789Z,19.87
2022-10-27T20:48:29.087Z,19.90
2022-10-27T20:50:35.898Z,19.93
2022-10-27T20:52:42.376Z,20.00
2022-10-27T20:54:49.334Z,20.11
2022-10-27T20:56:55.957Z,20.25
2022-10-27T20:59:02.730Z,20.37
2022-10-27T21:01:32.466Z,20.51
2022-10-27T21:03:39.222Z,20.55
2022-10-27T21:05:46.652Z,20.56
2022-10-27T21:07:53.416Z,20.62
2022-10-27T21:10:00.121Z,20.66
2022-10-27T21:12:06.890Z,20.73
2022-10-27T21:14:13.845Z,20.76
2022-10-27T21:16:20.522Z,20.73
2022-10-27T21:18:27.474Z,20.71
2022-10-27T21:20:33.993Z,20.75
2022-10-27T21:22:40.575Z,20.86
2022-10-27T21:24:46.540Z,20.91
2022-10-27T21:26:53.380Z,20.90
2022-10-27T21:29:00.504Z,20.99
2022-10-27T21:31:10.375Z,21.04
2022-10-27T21:33:16.812Z,21.01
2022-10-27T21:35:25.657Z,21.06
2022-10-27T21:37:32.321Z,21.17
2022-10-27T21:39:38.847Z,21.19
2022-10-27T21:41:45.021Z,21.16
2022-10-27T21:43:53.220Z,21.18
2022-10-27T21:45:59.984Z,21.13
2022-10-27T21:48:07.234Z,21.01
2022-10-27T21:50:13.451Z,20.91
2022-10-27T21:52:20.071Z,20.91
2022-10-27T21:54:26.965Z,20.91
2022-10-27T21:56:35.784Z,20.90
2022-10-27T21:58:42.318Z,20.95
2022-10-27T22:00:48.586Z,20.98
2022-10-27T22:02:55.095Z,21.00
2022-10-27T22:05:01.403Z,21.02
2022-10-27T22:07:07.647Z,21.06
2022-10-27T22:09:13.893Z,21.09
2022-10-27T22:11:23.285Z,21.18
2022-10-27T22:13:29.494Z,21.18
2022-10-27T22:15:36.692Z,21.20
2022-10-27T22:17:43.163Z,21.19
2022-10-27T22:19:49.459Z,21.15
2022-10-27T22:21:55.817Z,21.05
2022-10-27T22:24:02.295Z,21.06
2022-10-27T22:26:17.962Z,21.08
2022-10-27T22:28:24.222Z,21.08
2022-10-27T22:30:31.946Z,21.09
2022-10-27T22:32:38.340Z,21.10
2022-10-27T22:34:44.799Z,21.02
2022-10-27T22:36:51.400Z,20.94
2022-10-27T22:39:00.865Z,20.93
2022-10-27T22:41:09.913Z,20.98
2022-10-27T22:43:16.191Z,21.02
2022-10-27T22:45:22.288Z,21.01
2022-10-27T22:47:28.504Z,20.94
2022-10-27T22:49:34.908Z,20.91
2022-10-27T22:51:41.103Z,20.89
2022-10-27T22:53:48.597Z,20.89
2022-10-27T22:55:55.045Z,20.81
2022-10-27T22:58:01.498Z,20.74
2022-10-27T23:00:08.373Z,20.65
2022-10-27T23:02:14.588Z,20.61
2022-10-27T23:04:20.963Z,20.58
2022-10-27T23:06:29.769Z,20.55
2022-10-27T23:08:36.233Z,20.56
2022-10-27T23:10:42.470Z,20.57
2022-10-27T23:12:48.709Z,20.58
2022-10-27T23:14:55.192Z,20.52
2022-10-27T23:17:03.991Z,20.40
2022-10-27T23:19:10.399Z,20.29
2022-10-27T23:21:18.313Z,20.21
2022-10-27T23:23:25.395Z,20.19
2022-10-27T23:25:33.847Z,20.13
2022-10-27T23:27:42.604Z,20.11
2022-10-27T23:29:49.139Z,20.14
2022-10-27T23:31:55.084Z,20.11
2022-10-27T23:34:06.406Z,20.06
2022-10-27T23:36:13.168Z,20.02
2022-10-27T23:38:19.281Z,20.02
2022-10-27T23:40:25.335Z,20.02
2022-10-27T23:42:31.252Z,20.02
2022-10-27T23:44:37.525Z,19.94
2022-10-27T23:46:43.435Z,19.76
2022-10-27T23:48:49.963Z,19.59
2022-10-27T23:50:56.215Z,19.50
2022-10-27T23:53:02.551Z,19.46
2022-10-27T23:55:09.421Z,19.41
2022-10-27T23:57:15.785Z,19.37
2022-10-27T23:59:22.342Z,19.35
